createdAt,value
2023-05-23T18:20:26.123Z,50.877789
2023-05-23T18:21:26.113Z,50.877884
2023-05-23T18:22:26.084Z,50.877022
2023-05-23T18:23:26.100Z,50.876869
2023-05-23T18:24:26.152Z,50.876869
2023-05-23T18:25:26.053Z,50.876869
2023-05-23T18:26:26.051Z,50.876869
2023-05-23T18:27:26.057Z,50.876766
2023-05-23T18:28:26.065Z,50.877361
2023-05-23T18:29:26.098Z,50.877361
2023-05-23T18:30:26.020Z,50.877361
2023-05-23T18:31:26.005Z,50.876019
2023-05-23T18:32:26.016Z,50.875614
2023-05-23T18:33:26.090Z,50.875305
2023-05-23T18:34:27.251Z,50.875015
2023-05-23T18:35:26.992Z,50.875313
2023-05-23T18:36:25.953Z,50.875153
2023-05-23T18:37:25.938Z,50.874981
2023-05-23T18:38:25.980Z,50.875080
2023-05-23T18:39:25.928Z,50.874969
2023-05-23T18:40:25.926Z,50.875031
2023-05-23T18:41:25.901Z,50.875294
2023-05-23T18:42:25.896Z,50.875294
2023-05-23T18:43:25.899Z,50.875294
2023-05-23T18:44:25.885Z,50.875294
2023-05-23T18:45:25.886Z,50.875294
2023-05-23T18:46:25.949Z,50.875294
2023-05-23T18:47:25.869Z,50.875294
2023-05-23T18:48:25.851Z,50.875294
2023-05-23T18:49:25.840Z,50.875294
2023-05-23T18:50:25.846Z,50.875294
2023-05-23T18:51:25.834Z,50.875294
2023-05-23T18:52:25.824Z,50.875294
2023-05-23T18:53:25.784Z,50.875294
2023-05-23T18:54:25.761Z,50.875294
2023-05-23T18:55:25.784Z,50.875294
2023-05-23T18:56:25.763Z,50.875294
2023-05-23T18:57:25.768Z,50.875294
2023-05-23T18:58:25.795Z,50.875294
2023-05-23T18:59:25.721Z,50.875294
2023-05-23T19:00:25.726Z,50.875294
2023-05-23T19:01:25.740Z,50.875294
2023-05-23T19:02:25.839Z,50.875294
2023-05-23T19:03:25.723Z,50.875294
2023-05-23T19:04:25.787Z,50.875294
2023-05-23T19:05:25.668Z,50.875294
2023-05-23T19:06:25.673Z,50.875294
2023-05-23T19:07:25.660Z,50.875294
2023-05-23T19:08:25.645Z,50.875294
2023-05-23T19:09:26.632Z,50.875294
2023-05-23T19:10:26.613Z,50.875294
2023-05-23T19:11:25.619Z,50.875294
2023-05-23T19:12:25.620Z,50.875294
2023-05-23T19:13:25.599Z,50.875294
2023-05-23T19:14:25.593Z,50.875294
2023-05-23T19:15:25.592Z,50.875294
2023-05-23T19:16:25.595Z,50.875294
2023-05-23T19:17:25.563Z,50.875294
2023-05-23T19:18:25.568Z,50.875294
2023-05-23T19:19:26.896Z,50.875294
2023-05-23T19:20:25.541Z,50.875294
2023-05-23T19:21:25.512Z,50.875294
2023-05-23T19:22:27.757Z,50.875294
2023-05-23T19:23:25.498Z,50.875294
2023-05-23T19:24:25.539Z,50.875294
2023-05-23T19:25:25.499Z,50.875294
2023-05-23T19:26:25.482Z,50.875294
2023-05-23T19:27:25.487Z,50.875294
2023-05-23T19:28:25.454Z,50.875294
2023-05-23T19:29:25.477Z,50.875294
2023-05-23T19:30:25.455Z,50.875294
2023-05-23T19:31:25.484Z,50.875294
2023-05-23T19:32:25.497Z,50.875294
2023-05-23T19:33:25.407Z,50.875294
2023-05-23T19:34:25.400Z,50.875294
2023-05-23T19:35:25.425Z,50.875294
2023-05-23T19:36:25.379Z,50.875294
2023-05-23T19:37:25.358Z,50.875294
2023-05-23T19:38:25.356Z,50.875294
2023-05-23T19:39:25.353Z,50.875294
2023-05-23T19:40:25.320Z,50.875294
2023-05-23T19:41:25.344Z,50.875294
2023-05-23T19:42:25.341Z,50.875294
2023-05-23T19:43:25.329Z,50.875294
2023-05-23T19:44:25.307Z,50.875294
2023-05-23T19:45:25.312Z,50.875294
2023-05-23T19:46:25.320Z,50.875294
2023-05-23T19:47:25.320Z,50.875294
2023-05-23T19:48:25.266Z,50.875294
2023-05-23T19:49:25.256Z,50.875294
2023-05-23T19:50:25.227Z,50.875294
2023-05-23T19:51:25.209Z,50.875294
2023-05-23T19:52:25.234Z,50.875294
2023-05-23T19:53:25.222Z,50.875294
2023-05-23T19:54:26.184Z,50.875294
2023-05-23T19:55:25.182Z,50.875294
2023-05-23T19:56:25.155Z,50.875294
2023-05-23T19:57:25.179Z,50.875294
2023-05-23T19:58:25.160Z,50.875294
2023-05-23T19:59:25.157Z,50.875294
2023-05-23T20:00:25.130Z,50.875294
2023-05-23T20:01:25.205Z,50.875294
2023-05-23T20:02:25.159Z,50.875294
2023-05-23T20:03:25.162Z,50.875294
2023-05-23T20:04:25.131Z,50.875294
2023-05-23T20:05:25.091Z,50.875294
2023-05-23T20:06:25.106Z,50.875294
2023-05-23T20:07:25.079Z,50.875294
2023-05-23T20:08:25.076Z,50.875294
2023-05-23T20:09:25.041Z,50.875294
2023-05-23T20:10:25.053Z,50.875294
2023-05-23T20:11:25.022Z,50.875294
2023-05-23T20:12:25.054Z,50.875294
2023-05-23T20:13:25.000Z,50.875294
2023-05-23T20:14:25.016Z,50.875294
2023-05-23T20:15:38.495Z,50.875294
2023-05-23T20:16:27.032Z,50.875294
2023-05-23T20:17:24.990Z,50.875294
2023-05-23T20:18:24.952Z,50.875294
2023-05-23T20:19:24.973Z,50.875294
2023-05-23T20:20:24.926Z,50.875294
2023-05-23T20:21:24.931Z,50.875294
2023-05-23T20:22:24.904Z,50.875294
2023-05-23T20:23:24.888Z,50.875294
2023-05-23T20:24:24.941Z,50.875294
2023-05-23T20:25:24.893Z,50.875294
2023-05-23T20:26:24.870Z,50.875294
2023-05-23T20:27:24.877Z,50.875294
2023-05-23T20:28:24.847Z,50.875294
2023-05-23T20:29:24.843Z,50.875294
2023-05-23T20:30:24.863Z,50.875294
2023-05-23T20:31:24.860Z,50.875294
2023-05-23T20:32:24.847Z,50.875294
2023-05-23T20:33:24.808Z,50.875294
2023-05-23T20:34:24.790Z,50.875294
2023-05-23T20:35:24.791Z,50.875294
2023-05-23T20:36:24.772Z,50.875294
2023-05-23T20:37:24.772Z,50.875294
2023-05-23T20:38:24.803Z,50.875294
2023-05-23T20:39:24.733Z,50.875294
2023-05-23T20:40:24.751Z,50.875294
2023-05-23T20:41:24.708Z,50.875294
2023-05-23T20:42:24.724Z,50.875294
2023-05-23T20:43:24.707Z,50.875294
2023-05-23T20:44:24.694Z,50.875294
2023-05-23T20:45:24.679Z,50.875294
2023-05-23T20:46:24.756Z,50.875294
2023-05-23T20:47:24.667Z,50.875294
2023-05-23T20:48:24.656Z,50.875294
2023-05-23T20:49:24.688Z,50.875294
2023-05-23T20:50:24.668Z,50.875294
2023-05-23T20:51:24.724Z,50.875294
2023-05-23T20:52:24.618Z,50.875294
2023-05-23T20:53:24.588Z,50.875294
2023-05-23T20:54:25.628Z,50.875294
2023-05-23T20:55:27.106Z,50.875305
2023-05-23T20:56:24.580Z,50.875473
2023-05-23T20:57:25.168Z,50.875317
2023-05-23T20:58:24.684Z,50.875591
2023-05-23T20:59:24.659Z,50.875317
2023-05-23T21:00:24.600Z,50.875313
2023-05-23T21:01:24.568Z,50.875210
2023-05-23T21:02:24.602Z,50.875366
2023-05-23T21:03:24.573Z,50.875412
2023-05-23T21:04:25.166Z,50.875351
2023-05-23T21:05:24.473Z,50.875248
2023-05-23T21:06:24.635Z,50.875320
2023-05-23T21:07:24.463Z,50.875233
2023-05-23T21:08:24.492Z,50.875294
2023-05-23T21:09:24.461Z,50.875427
2023-05-23T21:10:24.456Z,50.876648
2023-05-23T21:11:24.414Z,50.879108
2023-05-23T21:12:24.397Z,50.891518
2023-05-23T21:13:24.419Z,50.891518
2023-05-23T21:14:24.375Z,50.891518
2023-05-23T21:15:24.376Z,50.891518
2023-05-23T21:16:24.514Z,50.875244
2023-05-23T21:17:24.420Z,50.875298
2023-05-23T21:18:24.388Z,50.875069
2023-05-23T21:19:24.397Z,50.875271
2023-05-23T21:20:24.360Z,50.875156
2023-05-23T21:21:24.325Z,50.875217
2023-05-23T21:22:24.359Z,50.875370
2023-05-23T21:23:24.315Z,50.875412
2023-05-23T21:24:25.347Z,50.875290
2023-05-23T21:25:24.307Z,50.875290
2023-05-23T21:26:24.338Z,50.875340
2023-05-23T21:27:24.287Z,50.875397
2023-05-23T21:28:24.259Z,50.875523
2023-05-23T21:29:24.254Z,50.875481
2023-05-23T21:30:25.089Z,50.875351
2023-05-23T21:31:37.190Z,50.875355
2023-05-23T21:32:26.345Z,50.875458
2023-05-23T21:33:24.208Z,50.875221
2023-05-23T21:34:24.653Z,50.875397
2023-05-23T21:35:25.183Z,50.875416
2023-05-23T21:36:24.342Z,50.875340
2023-05-23T21:37:24.154Z,50.875317
2023-05-23T21:38:25.150Z,50.875271
2023-05-23T21:39:24.134Z,50.875271
